Time;durP1;ratioP1;P1;durP2;ratioP2;P2;SDS_P1;SDS_P2;PMS_P1;PMS_P2;Temp;Humidity;BMP_temperature;BMP_pressure;BME280_temperature;BME280_humidity;BME280_pressure;Samples;Min_cycle;Max_cycle;Signal;HPM_P1;HPM_P2
2021/11/22 00:00:33;;;;;;;0.40;0.40;;;;;;;;;;7333398;19;154728;-13
2021/11/22 00:03:08;;;;;;;0.40;0.40;;;;;;;;;;7332102;19;153698;-14
2021/11/22 00:05:40;;;;;;;0.50;0.50;;;;;;;;;;7329476;19;161904;-13
2021/11/22 00:08:11;;;;;;;0.50;0.50;;;;;;;;;;7328979;19;162420;-13
2021/11/22 00:10:43;;;;;;;0.38;0.38;;;;;;;;;;7332540;19;154408;-13
2021/11/22 00:13:14;;;;;;;0.40;0.40;;;;;;;;;;7332976;19;153607;-12
2021/11/22 09:52:28;;;;;;;1.42;0.50;;;;;;;;;;7370718;19;134427;-12
2021/11/22 09:54:59;;;;;;;0.60;0.50;;;;;;;;;;7367816;19;153893;-14
2021/11/22 09:57:31;;;;;;;0.43;0.43;;;;;;;;;;7366389;19;161937;-14
2021/11/22 10:00:05;;;;;;;0.45;0.40;;;;;;;;;;7366889;19;162551;-15
2021/11/22 10:02:51;;;;;;;0.50;0.50;;;;;;;;;;7366091;19;153973;-14
2021/11/22 10:05:29;;;;;;;0.35;0.30;;;;;;;;;;7367204;19;153561;-16
2021/11/22 10:08:06;;;;;;;0.50;0.50;;;;;;;;;;7366722;19;162063;-15
2021/11/22 10:10:43;;;;;;;0.30;0.30;;;;;;;;;;7365567;19;162376;-14
2021/11/22 10:13:30;;;;;;;0.30;0.30;;;;;;;;;;7366344;19;154359;-14
2021/11/22 10:16:04;;;;;;;0.30;0.30;;;;;;;;;;7367051;19;153733;-14
2021/11/22 10:18:37;;;;;;;0.47;0.40;;;;;;;;;;7366157;19;161801;-14
2021/11/22 10:21:11;;;;;;;0.30;0.30;;;;;;;;;;7364446;19;162435;-15
2021/11/22 10:23:46;;;;;;;0.40;0.40;;;;;;;;;;7366367;19;154229;-14
2021/11/22 10:26:18;;;;;;;0.30;0.30;;;;;;;;;;7366498;19;153649;-13
2021/11/22 10:28:54;;;;;;;1.40;0.50;;;;;;;;;;7366976;19;161812;-14
2021/11/22 10:31:31;;;;;;;0.30;0.30;;;;;;;;;;7365676;19;163775;-15
2021/11/22 10:34:04;;;;;;;0.45;0.25;;;;;;;;;;7367223;19;153946;-15
2021/11/22 10:36:41;;;;;;;0.40;0.40;;;;;;;;;;7366625;19;153805;-14
2021/11/22 10:39:16;;;;;;;0.28;0.28;;;;;;;;;;7365058;19;161771;-21
2021/11/22 10:41:47;;;;;;;1.95;0.38;;;;;;;;;;7361064;19;162445;-14
2021/11/22 10:44:18;;;;;;;0.40;0.40;;;;;;;;;;7362913;19;154094;-14
2021/11/22 10:46:54;;;;;;;0.93;0.30;;;;;;;;;;7363728;19;153618;-15
2021/11/22 10:49:34;;;;;;;0.38;0.38;;;;;;;;;;7358006;19;161945;-13
2021/11/22 10:52:13;;;;;;;0.32;0.30;;;;;;;;;;7342022;19;162522;-15
2021/11/22 10:54:58;;;;;;;0.95;0.40;;;;;;;;;;7329629;19;153915;-15
2021/11/22 10:57:35;;;;;;;0.60;0.40;;;;;;;;;;7329167;19;153503;-14
2021/11/22 11:00:28;;;;;;;0.77;0.30;;;;;;;;;;7331825;19;161821;-15
2021/11/22 11:03:06;;;;;;;0.30;0.30;;;;;;;;;;7331151;19;163172;-16
2021/11/22 11:05:39;;;;;;;0.32;0.32;;;;;;;;;;7333487;19;153916;-14
2021/11/22 11:08:12;;;;;;;3.30;0.60;;;;;;;;;;7332346;19;153514;-15
2021/11/22 11:10:50;;;;;;;1.17;0.43;;;;;;;;;;7336680;19;161872;-14
2021/11/22 11:13:44;;;;;;;1.20;0.50;;;;;;;;;;7332699;19;162868;-13
2021/11/22 11:16:17;;;;;;;0.55;0.30;;;;;;;;;;7332931;19;154094;-13
2021/11/22 11:18:58;;;;;;;1.13;0.30;;;;;;;;;;7333066;19;153334;-13
2021/11/22 11:21:32;;;;;;;0.40;0.40;;;;;;;;;;7331097;19;162362;-13
2021/11/22 11:24:05;;;;;;;0.30;0.30;;;;;;;;;;7332415;19;162569;-13
2021/11/22 11:26:39;;;;;;;;;;;;;;;;;;7333300;19;154107;-13
2021/11/22 11:29:11;;;;;;;0.30;0.30;;;;;;;;;;7332915;19;153360;-15
2021/11/22 11:31:42;;;;;;;0.60;0.20;;;;;;;;;;7330923;19;161795;-13
2021/11/22 11:34:15;;;;;;;0.30;0.30;;;;;;;;;;7336882;19;162338;-13
2021/11/22 11:37:07;;;;;;;;;;;;;;;;;;7333214;19;154085;-14
2021/11/22 11:40:09;;;;;;;0.30;0.30;;;;;;;;;;7334191;19;154089;-13
2021/11/22 11:43:22;;;;;;;0.30;0.30;;;;;;;;;;7329954;19;161884;-15
2021/11/22 11:45:56;;;;;;;0.20;0.20;;;;;;;;;;7331743;19;162547;-15
2021/11/22 11:48:48;;;;;;;0.20;0.20;;;;;;;;;;7332268;19;154279;-14
2021/11/22 11:51:21;;;;;;;0.32;0.32;;;;;;;;;;7330363;19;153707;-16
2021/11/22 11:54:11;;;;;;;0.32;0.32;;;;;;;;;;7331240;19;161812;-15
2021/11/22 11:56:51;;;;;;;0.30;0.30;;;;;;;;;;7331296;19;162600;-14
2021/11/22 11:59:37;;;;;;;0.30;0.30;;;;;;;;;;7331777;19;153974;-15
2021/11/22 12:02:13;;;;;;;0.20;0.20;;;;;;;;;;7331228;19;153504;-12
2021/11/22 12:04:57;;;;;;;0.30;0.30;;;;;;;;;;7329574;19;162311;-14
2021/11/22 12:07:32;;;;;;;0.30;0.30;;;;;;;;;;7331316;19;162747;-12
2021/11/22 12:10:20;;;;;;;0.30;0.30;;;;;;;;;;7334118;19;154185;-13
2021/11/22 12:12:54;;;;;;;0.25;0.25;;;;;;;;;;7333415;19;154258;-13
2021/11/22 12:15:30;;;;;;;0.25;0.25;;;;;;;;;;7334464;19;162020;-14
2021/11/22 12:18:07;;;;;;;0.30;0.30;;;;;;;;;;7330338;19;162542;-15
2021/11/22 12:21:03;;;;;;;0.30;0.30;;;;;;;;;;7330957;19;153905;-14
2021/11/22 12:23:46;;;;;;;0.20;0.20;;;;;;;;;;7329923;19;153527;-15
2021/11/22 12:26:31;;;;;;;0.30;0.30;;;;;;;;;;7333686;19;161985;-14
2021/11/22 12:29:03;;;;;;;0.60;0.30;;;;;;;;;;7332149;19;162617;-13
2021/11/22 12:31:49;;;;;;;0.38;0.30;;;;;;;;;;7330818;19;154215;-13
2021/11/22 12:34:35;;;;;;;0.30;0.30;;;;;;;;;;7330006;19;153305;-14
2021/11/22 12:37:25;;;;;;;0.30;0.30;;;;;;;;;;7332239;19;161879;-14
2021/11/22 12:39:57;;;;;;;0.40;0.40;;;;;;;;;;7332016;19;162500;-13
2021/11/22 12:42:28;;;;;;;0.40;0.40;;;;;;;;;;7332167;19;154006;-13
2021/11/22 12:45:05;;;;;;;1.55;0.40;;;;;;;;;;7331824;19;153537;-14
2021/11/22 12:47:40;;;;;;;0.93;0.40;;;;;;;;;;7332709;19;161825;-13
2021/11/22 12:50:15;;;;;;;0.30;0.30;;;;;;;;;;7330845;19;162618;-12
2021/11/22 12:53:11;;;;;;;0.40;0.40;;;;;;;;;;7330540;19;153979;-13
2021/11/22 12:55:45;;;;;;;0.57;0.20;;;;;;;;;;7334922;19;153555;-13
2021/11/22 12:58:22;;;;;;;0.30;0.20;;;;;;;;;;7331035;19;161799;-15
2021/11/22 13:00:55;;;;;;;2.30;2.10;;;;;;;;;;7332146;19;162634;-13
2021/11/22 13:03:32;;;;;;;2.33;2.03;;;;;;;;;;7331031;19;153898;-14
2021/11/22 13:06:16;;;;;;;2.10;1.80;;;;;;;;;;7332878;19;153654;-15
2021/11/22 13:08:52;;;;;;;1.73;1.63;;;;;;;;;;7332864;19;161957;-13
2021/11/22 13:11:54;;;;;;;1.67;1.50;;;;;;;;;;7329657;19;162600;-14
2021/11/22 13:14:47;;;;;;;1.30;1.20;;;;;;;;;;7330462;19;153993;-14
2021/11/22 13:17:18;;;;;;;2.20;2.00;;;;;;;;;;7333127;19;153597;-14
2021/11/22 13:19:58;;;;;;;1.80;1.63;;;;;;;;;;7329856;19;162142;-12
2021/11/22 13:22:29;;;;;;;2.15;1.90;;;;;;;;;;7331172;19;162551;-13
2021/11/22 13:25:00;;;;;;;1.50;1.40;;;;;;;;;;7329580;19;154083;-13
2021/11/22 13:27:32;;;;;;;1.83;1.70;;;;;;;;;;7331699;19;153778;-15
2021/11/22 13:30:04;;;;;;;1.70;1.60;;;;;;;;;;7331692;19;161882;-13
2021/11/22 13:32:35;;;;;;;2.03;1.67;;;;;;;;;;7332181;19;162361;-13
2021/11/22 13:35:27;;;;;;;1.55;1.45;;;;;;;;;;7332294;19;153916;-14
2021/11/22 13:38:09;;;;;;;1.58;1.30;;;;;;;;;;7332263;19;153525;-14
2021/11/22 13:40:42;;;;;;;1.75;1.40;;;;;;;;;;7330915;19;161919;-13
2021/11/22 13:43:16;;;;;;;2.38;1.80;;;;;;;;;;7330795;19;162393;-15
2021/11/22 13:45:57;;;;;;;1.20;1.20;;;;;;;;;;7330652;19;154058;-13
2021/11/22 13:48:50;;;;;;;1.40;1.30;;;;;;;;;;7331856;19;153641;-12
2021/11/22 13:51:26;;;;;;;1.00;1.00;;;;;;;;;;7329778;19;161879;-13
2021/11/22 13:54:01;;;;;;;1.50;1.40;;;;;;;;;;7331509;19;162361;-15
2021/11/22 13:56:41;;;;;;;1.20;1.20;;;;;;;;;;7330656;19;154089;-14
2021/11/22 13:59:21;;;;;;;1.40;1.30;;;;;;;;;;7331197;19;153795;-16
2021/11/22 14:01:54;;;;;;;1.10;1.10;;;;;;;;;;7330842;19;161950;-15
2021/11/22 14:04:28;;;;;;;1.50;1.40;;;;;;;;;;7328254;19;162435;-15
2021/11/22 14:07:09;;;;;;;1.15;1.08;;;;;;;;;;7331888;19;153920;-15
2021/11/22 14:09:42;;;;;;;1.20;1.20;;;;;;;;;;7330995;19;153550;-15
2021/11/22 14:12:13;;;;;;;1.58;1.35;;;;;;;;;;7328863;19;161920;-13
2021/11/22 14:14:48;;;;;;;1.17;1.17;;;;;;;;;;7330737;19;162583;-12
2021/11/22 14:17:22;;;;;;;1.40;1.30;;;;;;;;;;7330773;19;154135;-15
2021/11/22 14:20:11;;;;;;;1.00;1.00;;;;;;;;;;7330420;19;153606;-13
2021/11/22 14:22:47;;;;;;;1.50;1.40;;;;;;;;;;7329450;19;161791;-13
2021/11/22 14:25:23;;;;;;;1.52;1.40;;;;;;;;;;7327795;19;162574;-13
2021/11/22 14:27:56;;;;;;;3.45;3.15;;;;;;;;;;7333862;19;154002;-15
2021/11/22 14:30:31;;;;;;;;;;;;;;;;;;7337178;19;153505;-14
2021/11/22 14:33:10;;;;;;;3.45;3.25;;;;;;;;;;7336342;19;161975;-16
2021/11/22 14:35:57;;;;;;;2.60;2.40;;;;;;;;;;7336199;19;162553;-14
2021/11/22 14:38:35;;;;;;;2.50;2.30;;;;;;;;;;7337645;19;153936;-16
2021/11/22 14:41:19;;;;;;;2.70;2.50;;;;;;;;;;7336148;19;153605;-13
2021/11/22 14:43:52;;;;;;;2.40;2.30;;;;;;;;;;7336500;19;161828;-13
2021/11/22 14:46:23;;;;;;;;;;;;;;;;;;7337246;19;162365;-15
2021/11/22 14:49:01;;;;;;;2.42;2.22;;;;;;;;;;7337033;19;154673;-13
2021/11/22 14:51:41;;;;;;;2.00;1.90;;;;;;;;;;7334941;19;153648;-16
2021/11/22 14:54:19;;;;;;;2.30;2.10;;;;;;;;;;7336727;19;161842;-16
2021/11/22 14:56:52;;;;;;;2.60;2.40;;;;;;;;;;7336731;19;162500;-14
2021/11/22 14:59:28;;;;;;;2.22;2.03;;;;;;;;;;7336964;19;153954;-15
2021/11/22 15:02:02;;;;;;;1.83;1.73;;;;;;;;;;7337139;19;153846;-13
2021/11/22 15:04:37;;;;;;;1.98;1.80;;;;;;;;;;7334688;19;161797;-15
2021/11/22 15:07:13;;;;;;;1.92;1.83;;;;;;;;;;7334407;19;162400;-15
2021/11/22 15:09:49;;;;;;;2.20;1.98;;;;;;;;;;7333518;19;154045;-14
2021/11/22 15:12:23;;;;;;;1.85;1.75;;;;;;;;;;7333628;19;153441;-14
2021/11/22 15:14:56;;;;;;;2.22;2.03;;;;;;;;;;7332602;19;162078;-14
2021/11/22 15:17:29;;;;;;;;;;;;;;;;;;7336748;19;162602;-16
2021/11/22 15:20:02;;;;;;;2.40;2.03;;;;;;;;;;7336587;19;154027;-14
2021/11/22 15:22:34;;;;;;;1.42;1.35;;;;;;;;;;7335482;19;153626;-14
2021/11/22 15:25:10;;;;;;;1.77;1.67;;;;;;;;;;7330996;19;162506;-15
2021/11/22 15:27:43;;;;;;;1.58;1.48;;;;;;;;;;7332634;19;162366;-13
2021/11/22 15:30:18;;;;;;;1.10;1.10;;;;;;;;;;7333209;19;154213;-16
2021/11/22 15:32:49;;;;;;;0.80;0.80;;;;;;;;;;7332913;19;153548;-14
2021/11/22 15:35:20;;;;;;;0.90;0.90;;;;;;;;;;7329781;19;161900;-14
2021/11/22 15:37:52;;;;;;;1.00;1.00;;;;;;;;;;7332450;19;162443;-14
2021/11/22 15:40:26;;;;;;;0.90;0.90;;;;;;;;;;7332684;19;154528;-13
2021/11/22 15:42:57;;;;;;;0.80;0.80;;;;;;;;;;7332928;19;153528;-15
2021/11/22 15:45:29;;;;;;;0.82;0.82;;;;;;;;;;7330141;19;161810;-13
2021/11/22 15:48:01;;;;;;;0.77;0.77;;;;;;;;;;7332233;19;162654;-13
2021/11/22 15:50:33;;;;;;;0.80;0.80;;;;;;;;;;7331386;19;153988;-14
2021/11/22 15:53:05;;;;;;;0.85;0.85;;;;;;;;;;7332506;19;153592;-13
2021/11/22 15:55:39;;;;;;;0.70;0.70;;;;;;;;;;7331996;19;161780;-14
2021/11/22 15:58:10;;;;;;;0.52;0.52;;;;;;;;;;7331481;19;162405;-14
2021/11/22 16:00:41;;;;;;;0.60;0.60;;;;;;;;;;7332238;19;154075;-13
2021/11/22 16:03:13;;;;;;;0.60;0.60;;;;;;;;;;7330879;19;153565;-13
2021/11/22 16:05:44;;;;;;;0.60;0.60;;;;;;;;;;7329334;19;162440;-13
2021/11/22 16:08:15;;;;;;;0.70;0.70;;;;;;;;;;7331412;19;162392;-13
2021/11/22 16:10:49;;;;;;;0.70;0.65;;;;;;;;;;7331772;19;154101;-13
2021/11/22 16:13:21;;;;;;;0.80;0.80;;;;;;;;;;7331908;19;153595;-14
2021/11/22 16:15:59;;;;;;;0.50;0.50;;;;;;;;;;7331270;19;161841;-14
2021/11/22 16:18:30;;;;;;;0.93;0.60;;;;;;;;;;7331442;19;162503;-13
2021/11/22 16:21:02;;;;;;;0.55;0.55;;;;;;;;;;7331544;19;154009;-12
2021/11/22 16:23:33;;;;;;;0.70;0.70;;;;;;;;;;7331370;19;153530;-14
2021/11/22 16:26:07;;;;;;;0.88;0.70;;;;;;;;;;7328352;19;161772;-15
2021/11/22 16:28:39;;;;;;;0.63;0.63;;;;;;;;;;7330277;19;162645;-14
2021/11/22 16:31:12;;;;;;;0.65;0.60;;;;;;;;;;7331257;19;154015;-14
2021/11/22 16:33:47;;;;;;;1.95;0.75;;;;;;;;;;7329660;19;153548;-13
2021/11/22 16:36:19;;;;;;;0.60;0.60;;;;;;;;;;7329873;19;161873;-13
2021/11/22 16:38:50;;;;;;;1.73;0.63;;;;;;;;;;7334064;19;162526;-12
2021/11/22 16:41:24;;;;;;;1.02;0.70;;;;;;;;;;7330453;19;153995;-15
2021/11/22 16:43:56;;;;;;;0.60;0.60;;;;;;;;;;7331662;19;153670;-13
2021/11/22 16:46:27;;;;;;;1.02;0.70;;;;;;;;;;7329866;19;161560;-13
2021/11/22 16:48:58;;;;;;;0.52;0.50;;;;;;;;;;7329927;19;162356;-14
2021/11/22 16:51:29;;;;;;;0.70;0.70;;;;;;;;;;7326596;19;154160;-14
2021/11/22 16:54:02;;;;;;;2.40;0.70;;;;;;;;;;7330694;19;153631;-14
2021/11/22 16:56:41;;;;;;;0.60;0.60;;;;;;;;;;7332055;19;161753;-15
2021/11/22 16:59:15;;;;;;;0.60;0.60;;;;;;;;;;7333035;19;162511;-15
2021/11/22 17:01:47;;;;;;;0.45;0.45;;;;;;;;;;7332842;19;153963;-15
2021/11/22 17:04:21;;;;;;;0.45;0.45;;;;;;;;;;7331535;19;153521;-14
2021/11/22 17:06:53;;;;;;;0.50;0.50;;;;;;;;;;7327687;19;161972;-14
2021/11/22 17:09:25;;;;;;;0.50;0.50;;;;;;;;;;7331371;19;162677;-14
2021/11/22 17:11:59;;;;;;;0.50;0.50;;;;;;;;;;7332640;19;153895;-15
2021/11/22 17:14:31;;;;;;;0.50;0.50;;;;;;;;;;7332574;19;153526;-13
2021/11/22 17:17:02;;;;;;;1.60;0.95;;;;;;;;;;7332824;19;161915;-14
2021/11/22 17:19:34;;;;;;;0.50;0.50;;;;;;;;;;7329364;19;162523;-15
2021/11/22 17:22:07;;;;;;;0.40;0.40;;;;;;;;;;7329286;19;154086;-13
2021/11/22 17:24:38;;;;;;;;;;;;;;;;;;7330120;19;153623;-12
2021/11/22 17:27:12;;;;;;;0.40;0.40;;;;;;;;;;7325357;19;162156;-13
2021/11/22 17:29:45;;;;;;;0.50;0.50;;;;;;;;;;7328749;19;162320;-15
2021/11/22 17:32:17;;;;;;;0.70;0.65;;;;;;;;;;7328929;19;154219;-12
2021/11/22 17:34:48;;;;;;;0.50;0.50;;;;;;;;;;7327867;19;153653;-13
2021/11/22 17:37:20;;;;;;;0.50;0.50;;;;;;;;;;7327306;19;162073;-14
2021/11/22 17:39:51;;;;;;;0.47;0.47;;;;;;;;;;7327414;19;162584;-15
2021/11/22 17:42:25;;;;;;;0.40;0.40;;;;;;;;;;7329819;19;153983;-13
2021/11/22 17:44:57;;;;;;;0.60;0.60;;;;;;;;;;7332428;19;153558;-14
2021/11/22 17:47:29;;;;;;;0.55;0.55;;;;;;;;;;7330884;19;161793;-13
2021/11/22 17:50:01;;;;;;;0.40;0.40;;;;;;;;;;7327916;19;162592;-13
2021/11/22 17:52:33;;;;;;;0.40;0.40;;;;;;;;;;7327273;19;154095;-14
2021/11/22 17:55:05;;;;;;;0.60;0.60;;;;;;;;;;7328263;19;153536;-15
2021/11/22 17:57:39;;;;;;;0.52;0.52;;;;;;;;;;7326792;19;162030;-12
2021/11/22 18:00:12;;;;;;;0.50;0.50;;;;;;;;;;7327855;19;162551;-12
2021/11/22 18:02:43;;;;;;;0.40;0.40;;;;;;;;;;7330453;19;154090;-14
2021/11/22 18:05:15;;;;;;;0.40;0.40;;;;;;;;;;7337151;19;153678;-14
2021/11/22 18:07:46;;;;;;;0.40;0.40;;;;;;;;;;7337873;19;161927;-15
2021/11/22 18:10:18;;;;;;;0.50;0.50;;;;;;;;;;7337523;19;162478;-13
2021/11/22 18:12:52;;;;;;;0.40;0.40;;;;;;;;;;7337167;19;154157;-13
2021/11/22 18:15:23;;;;;;;0.40;0.40;;;;;;;;;;7337867;19;153509;-13
2021/11/22 18:17:55;;;;;;;0.40;0.40;;;;;;;;;;7337444;19;161963;-13
2021/11/22 18:20:26;;;;;;;0.40;0.40;;;;;;;;;;7336280;19;162645;-13
2021/11/22 18:22:57;;;;;;;0.40;0.40;;;;;;;;;;7337694;19;153994;-15
2021/11/22 18:25:28;;;;;;;0.40;0.40;;;;;;;;;;7337719;19;153567;-13
2021/11/22 18:28:03;;;;;;;0.32;0.30;;;;;;;;;;7337364;19;161867;-15
2021/11/22 18:30:35;;;;;;;0.40;0.40;;;;;;;;;;7337287;19;162653;-15
2021/11/22 18:33:07;;;;;;;0.50;0.50;;;;;;;;;;7337825;19;153969;-14
2021/11/22 18:35:39;;;;;;;0.45;0.45;;;;;;;;;;7337312;19;153915;-14
2021/11/22 18:38:10;;;;;;;0.50;0.47;;;;;;;;;;7336937;19;161965;-14
2021/11/22 18:40:42;;;;;;;0.40;0.40;;;;;;;;;;7337215;19;162460;-13
2021/11/22 18:43:16;;;;;;;0.50;0.50;;;;;;;;;;7337349;19;154130;-13
2021/11/22 18:45:48;;;;;;;0.50;0.47;;;;;;;;;;7337130;19;153645;-14
2021/11/22 18:48:19;;;;;;;0.32;0.32;;;;;;;;;;7336860;19;161953;-16
2021/11/22 18:50:53;;;;;;;0.47;0.40;;;;;;;;;;7335647;19;162334;-14
2021/11/22 18:53:25;;;;;;;0.40;0.40;;;;;;;;;;7336975;19;153967;-15
2021/11/22 18:55:57;;;;;;;0.50;0.50;;;;;;;;;;7336920;19;153557;-13
2021/11/22 18:58:31;;;;;;;0.38;0.38;;;;;;;;;;7335599;19;161945;-15
2021/11/22 19:01:02;;;;;;;0.43;0.43;;;;;;;;;;7336574;19;162372;-15
2021/11/22 19:03:34;;;;;;;0.40;0.40;;;;;;;;;;7337139;19;154279;-13
2021/11/22 19:06:05;;;;;;;0.40;0.40;;;;;;;;;;7336394;19;153612;-14
2021/11/22 19:08:37;;;;;;;0.40;0.40;;;;;;;;;;7337353;19;161862;-14
2021/11/22 19:11:08;;;;;;;0.38;0.38;;;;;;;;;;7335089;19;162706;-14
2021/11/22 19:13:42;;;;;;;0.30;0.30;;;;;;;;;;7335016;19;153934;-13
2021/11/22 19:16:14;;;;;;;0.60;0.60;;;;;;;;;;7334670;19;153566;-16
2021/11/22 19:18:45;;;;;;;0.30;0.30;;;;;;;;;;7329073;19;161805;-12
2021/11/22 19:21:17;;;;;;;0.30;0.30;;;;;;;;;;7330456;19;162658;-13
2021/11/22 19:23:48;;;;;;;0.50;0.50;;;;;;;;;;7332882;19;153985;-12
2021/11/22 19:26:20;;;;;;;0.38;0.38;;;;;;;;;;7330944;19;153645;-12
2021/11/22 19:28:54;;;;;;;0.40;0.40;;;;;;;;;;7334598;19;161803;-15
2021/11/22 19:31:25;;;;;;;0.65;0.50;;;;;;;;;;7335299;19;162683;-13
2021/11/22 19:33:56;;;;;;;0.30;0.30;;;;;;;;;;7335211;19;154148;-14
2021/11/22 19:36:28;;;;;;;0.30;0.30;;;;;;;;;;7336695;19;153723;-13
2021/11/22 19:38:59;;;;;;;0.75;0.40;;;;;;;;;;7336387;19;161859;-14
2021/11/22 19:41:30;;;;;;;0.38;0.38;;;;;;;;;;7332097;19;162614;-13
2021/11/22 19:44:05;;;;;;;0.40;0.40;;;;;;;;;;7331246;19;154069;-14
2021/11/22 19:46:36;;;;;;;0.40;0.40;;;;;;;;;;7333677;19;153701;-13
2021/11/22 19:49:08;;;;;;;0.52;0.52;;;;;;;;;;7334808;19;162090;-14
2021/11/22 19:51:39;;;;;;;0.30;0.30;;;;;;;;;;7330313;19;162517;-14
2021/11/22 19:54:11;;;;;;;0.43;0.30;;;;;;;;;;7332671;19;153939;-13
2021/11/22 19:56:42;;;;;;;0.32;0.32;;;;;;;;;;7334429;19;153561;-12
2021/11/22 19:59:18;;;;;;;0.30;0.30;;;;;;;;;;7331379;19;161849;-13
2021/11/22 20:01:49;;;;;;;1.13;0.40;;;;;;;;;;7332877;19;162464;-14
2021/11/22 20:04:21;;;;;;;0.38;0.38;;;;;;;;;;7329278;19;154121;-14
2021/11/22 20:06:52;;;;;;;0.30;0.30;;;;;;;;;;7331548;19;153578;-13
2021/11/22 20:09:24;;;;;;;0.30;0.30;;;;;;;;;;7330704;19;161938;-12
2021/11/22 20:11:55;;;;;;;0.40;0.40;;;;;;;;;;7331095;19;162658;-13
2021/11/22 20:14:29;;;;;;;0.38;0.38;;;;;;;;;;7331737;19;153731;-14
2021/11/22 20:17:02;;;;;;;0.30;0.30;;;;;;;;;;7332626;19;153770;-14
2021/11/22 20:19:41;;;;;;;0.30;0.30;;;;;;;;;;7331022;19;161861;-13
2021/11/22 20:22:13;;;;;;;0.30;0.30;;;;;;;;;;7332462;19;162545;-16
2021/11/22 20:24:44;;;;;;;0.32;0.32;;;;;;;;;;7330450;19;154000;-14
2021/11/22 20:27:16;;;;;;;0.40;0.40;;;;;;;;;;7334494;19;153509;-13
2021/11/22 20:29:51;;;;;;;0.30;0.30;;;;;;;;;;7334120;19;161839;-14
2021/11/22 20:32:25;;;;;;;0.25;0.25;;;;;;;;;;7333484;19;162575;-15
2021/11/22 20:34:57;;;;;;;0.28;0.28;;;;;;;;;;7333189;19;154197;-15
2021/11/22 20:37:29;;;;;;;0.30;0.30;;;;;;;;;;7332718;19;153637;-15
2021/11/22 20:40:02;;;;;;;;;;;;;;;;;;7334264;19;161736;-13
2021/11/22 20:42:36;;;;;;;0.30;0.30;;;;;;;;;;7332602;19;162648;-14
2021/11/22 20:45:12;;;;;;;0.40;0.40;;;;;;;;;;7333755;19;154327;-15
2021/11/22 20:47:45;;;;;;;0.30;0.30;;;;;;;;;;7331998;19;153544;-14
2021/11/22 20:50:17;;;;;;;0.38;0.38;;;;;;;;;;7333201;19;161889;-14
2021/11/22 20:52:48;;;;;;;0.30;0.30;;;;;;;;;;7332336;19;162541;-13
2021/11/22 20:55:21;;;;;;;0.30;0.30;;;;;;;;;;7332833;19;155744;-14
2021/11/22 20:57:54;;;;;;;0.20;0.20;;;;;;;;;;7332326;19;153559;-13
2021/11/22 21:00:28;;;;;;;0.30;0.30;;;;;;;;;;7333522;19;161744;-15
2021/11/22 21:02:59;;;;;;;0.40;0.40;;;;;;;;;;7333734;19;162411;-15
2021/11/22 21:05:30;;;;;;;0.20;0.20;;;;;;;;;;7329809;19;154008;-16
2021/11/22 21:08:02;;;;;;;0.30;0.30;;;;;;;;;;7329599;19;153721;-15
2021/11/22 21:10:33;;;;;;;0.32;0.32;;;;;;;;;;7330132;19;161851;-15
2021/11/22 21:13:06;;;;;;;0.40;0.40;;;;;;;;;;7329238;19;162673;-13
2021/11/22 21:15:41;;;;;;;0.30;0.30;;;;;;;;;;7329798;19;154136;-15
2021/11/22 21:18:13;;;;;;;0.30;0.30;;;;;;;;;;7329795;19;153500;-15
2021/11/22 21:20:44;;;;;;;0.30;0.30;;;;;;;;;;7329284;19;162364;-15
2021/11/22 21:23:17;;;;;;;0.43;0.43;;;;;;;;;;7329604;19;162493;-15
2021/11/22 21:25:48;;;;;;;;;;;;;;;;;;7330141;19;153960;-14
2021/11/22 21:28:19;;;;;;;1.00;1.00;;;;;;;;;;7328518;19;153497;-15
2021/11/22 21:30:54;;;;;;;1.65;1.55;;;;;;;;;;7328926;19;162001;-15
2021/11/22 21:33:26;;;;;;;2.92;2.70;;;;;;;;;;7328929;19;162462;-16
2021/11/22 21:35:58;;;;;;;3.35;3.05;;;;;;;;;;7328881;19;154064;-13
2021/11/22 21:38:30;;;;;;;3.28;2.95;;;;;;;;;;7329071;19;153949;-15
2021/11/22 21:41:02;;;;;;;2.53;2.33;;;;;;;;;;7328664;19;161947;-16
2021/11/22 21:43:35;;;;;;;2.33;2.22;;;;;;;;;;7328762;19;162137;-15
2021/11/22 21:46:09;;;;;;;2.50;2.30;;;;;;;;;;7328936;19;153991;-15
2021/11/22 21:48:41;;;;;;;2.15;2.03;;;;;;;;;;7327421;19;153938;-13
2021/11/22 21:51:12;;;;;;;3.25;1.98;;;;;;;;;;7326800;19;161814;-13
2021/11/22 21:53:43;;;;;;;10.05;9.07;;;;;;;;;;7328519;19;162633;-14
2021/11/22 21:56:15;;;;;;;10.65;9.20;;;;;;;;;;7328693;19;154113;-15
2021/11/22 21:58:46;;;;;;;7.97;7.18;;;;;;;;;;7328403;19;153590;-14
2021/11/22 22:01:20;;;;;;;5.43;4.93;;;;;;;;;;7327943;19;162170;-14
2021/11/22 22:03:51;;;;;;;4.30;3.90;;;;;;;;;;7328075;19;162479;-13
2021/11/22 22:06:24;;;;;;;4.35;3.95;;;;;;;;;;7328035;19;154085;-13
2021/11/22 22:08:55;;;;;;;3.40;3.10;;;;;;;;;;7327668;19;153542;-14
2021/11/22 22:11:26;;;;;;;4.35;3.95;;;;;;;;;;7327732;19;161870;-16
2021/11/22 22:13:59;;;;;;;4.00;3.70;;;;;;;;;;7327714;19;162369;-16
2021/11/22 22:16:33;;;;;;;3.83;3.53;;;;;;;;;;7328372;19;154182;-13
2021/11/22 22:19:07;;;;;;;3.70;3.40;;;;;;;;;;7330785;19;153609;-15
2021/11/22 22:21:39;;;;;;;3.83;3.53;;;;;;;;;;7327470;19;161904;-14
2021/11/22 22:24:25;;;;;;;3.83;3.53;;;;;;;;;;7327600;19;162452;-13
2021/11/22 22:26:58;;;;;;;3.92;3.60;;;;;;;;;;7329736;19;154259;-13
2021/11/22 22:29:30;;;;;;;3.53;3.15;;;;;;;;;;7329729;19;153817;-17
2021/11/22 22:32:04;;;;;;;3.72;3.42;;;;;;;;;;7330241;19;162039;-14
2021/11/22 22:34:36;;;;;;;3.90;3.53;;;;;;;;;;7329978;19;162317;-15
2021/11/22 22:37:07;;;;;;;3.90;3.47;;;;;;;;;;7331093;19;154007;-15
2021/11/22 22:39:39;;;;;;;3.85;3.53;;;;;;;;;;7330836;19;153597;-14
2021/11/22 22:42:10;;;;;;;3.38;3.08;;;;;;;;;;7330005;19;161814;-14
2021/11/22 22:44:42;;;;;;;3.85;3.47;;;;;;;;;;7330200;19;162593;-14
2021/11/22 22:47:16;;;;;;;3.47;3.17;;;;;;;;;;7330214;19;154052;-14
2021/11/22 22:49:47;;;;;;;3.78;3.42;;;;;;;;;;7335334;19;154102;-13
2021/11/22 22:52:19;;;;;;;3.15;2.95;;;;;;;;;;7334333;19;161838;-14
2021/11/22 22:54:52;;;;;;;3.60;3.30;;;;;;;;;;7336901;19;162757;-14
2021/11/22 22:57:25;;;;;;;3.15;2.90;;;;;;;;;;7336237;19;154237;-13
2021/11/22 22:59:56;;;;;;;3.50;3.20;;;;;;;;;;7336879;19;153546;-15
2021/11/22 23:02:30;;;;;;;3.17;2.92;;;;;;;;;;7336710;19;161831;-14
2021/11/22 23:05:04;;;;;;;3.05;2.83;;;;;;;;;;7337054;19;163761;-13
2021/11/22 23:07:35;;;;;;;3.33;3.03;;;;;;;;;;7336707;19;154055;-14
2021/11/22 23:10:07;;;;;;;3.10;2.90;;;;;;;;;;7336130;19;153839;-14
2021/11/22 23:12:39;;;;;;;3.40;3.10;;;;;;;;;;7336793;19;162089;-14
2021/11/22 23:15:11;;;;;;;3.25;2.95;;;;;;;;;;7334454;19;162381;-14
2021/11/22 23:17:48;;;;;;;3.10;2.90;;;;;;;;;;7333876;19;154253;-16
2021/11/22 23:20:20;;;;;;;3.13;2.85;;;;;;;;;;7332278;19;153595;-13
2021/11/22 23:22:53;;;;;;;3.03;2.83;;;;;;;;;;7332152;19;162010;-12
2021/11/22 23:25:25;;;;;;;2.92;2.70;;;;;;;;;;7332242;19;162523;-15
2021/11/22 23:27:57;;;;;;;5.57;4.78;;;;;;;;;;7333010;19;153939;-14
2021/11/22 23:30:28;;;;;;;5.78;5.28;;;;;;;;;;7331695;19;153725;-15
2021/11/22 23:33:02;;;;;;;3.90;3.60;;;;;;;;;;7332899;19;161900;-13
2021/11/22 23:35:35;;;;;;;4.32;3.92;;;;;;;;;;7332839;19;162491;-13
2021/11/22 23:38:09;;;;;;;3.70;3.40;;;;;;;;;;7332797;19;153980;-14
2021/11/22 23:40:42;;;;;;;3.60;3.30;;;;;;;;;;7332713;19;153299;-14
2021/11/22 23:43:13;;;;;;;;;;;;;;;;;;7332873;19;161808;-13
2021/11/22 23:45:45;;;;;;;3.40;3.10;;;;;;;;;;7332300;19;162580;-13
2021/11/22 23:48:19;;;;;;;3.65;3.35;;;;;;;;;;7331472;19;154295;-12
2021/11/22 23:50:53;;;;;;;3.72;3.42;;;;;;;;;;7329887;19;153549;-14
2021/11/22 23:53:25;;;;;;;3.70;3.30;;;;;;;;;;7330555;19;161915;-13
2021/11/22 23:55:57;;;;;;;3.37;3.07;;;;;;;;;;7331972;19;162568;-14
2021/11/22 23:58:29;;;;;;;3.60;3.30;;;;;;;;;;7332393;19;154199;-13
